RJCK

Kushiro Airport

Airport
ICAO code
RJCK
IATA Code
KUH
Summary
ICAO Region
APAC
ICAO Territory
Location

Kushiro, Hokkaidō

Serving
Kushiro
Elevation
311 ft
Coordinates
43° 2' 28" N , 144° 11' 35" E
KCC
Metar
Observation
RJCK 030600Z 25009KT 200V280 9999 FEW040 BKN050 M04/M15 Q1013
Station
Kushiro Airport
Date/Time
2023-02-03 06:00:00
Wind direction
250°
Wind speed
09 kts
Lowest cloud amount
few clouds
Temperature
-4°C
Dew point
-15°C
Humidity
41%
QNH
1013 hPa
Weather condition
n/a

Kushiro Airport is an airport located 9 nm west northwest of Kushiro, Hokkaidō, Japan.

Climatology

Humid Continental climate (Köppen climate classification Dfb) - Variable weather patterns and a large seasonal temperature variance. Summers are often warm and humid with frequent thunderstorms and winters can be very cold with frequent snowfall and persistent snow cover.

Runways

Designator Length Width Surface Rops
17/35 2500 46 ASP Yes/Yes

Airport map

Aerial View

SKYbrary Partners:

Safety knowledge contributed by: